sensor_id;sensor_type;location;lat;lon;timestamp;pressure;altitude;pressure_sealevel;temperature;humidity
69751;BME280;57335;52.288;6.056;2023-04-06T07:11:39;101647.66;;;8.65;63.96
69751;BME280;57335;52.288;6.056;2023-04-06T07:28:06;101622.81;;;10.98;55.37
69751;BME280;57335;52.288;6.056;2023-04-06T07:30:32;101612.94;;;11.29;54.00
69751;BME280;57335;52.288;6.056;2023-04-06T07:33:02;101612.59;;;11.73;54.28
69751;BME280;57335;52.288;6.056;2023-04-06T07:35:28;101623.25;;;12.00;51.90
69751;BME280;57335;52.288;6.056;2023-04-06T07:37:55;101629.59;;;12.26;50.13
69751;BME280;57335;52.288;6.056;2023-04-06T07:40:21;101620.75;;;12.40;51.55
69751;BME280;57335;52.288;6.056;2023-04-06T07:42:48;101624.16;;;12.27;50.24
69751;BME280;57335;52.288;6.056;2023-04-06T07:45:15;101614.13;;;11.96;49.08
69751;BME280;57335;52.288;6.056;2023-04-06T07:47:42;101622.09;;;11.74;52.06
69751;BME280;57335;52.288;6.056;2023-04-06T07:50:09;101620.47;;;11.38;52.73
69751;BME280;57335;52.288;6.056;2023-04-06T07:52:35;101623.78;;;11.19;52.59
69751;BME280;57335;52.288;6.056;2023-04-06T07:55:04;101625.53;;;11.12;55.18
69751;BME280;57335;52.288;6.056;2023-04-06T07:57:31;101608.72;;;11.06;54.17
69751;BME280;57335;52.288;6.056;2023-04-06T07:59:57;101618.13;;;11.22;55.38
69751;BME280;57335;52.288;6.056;2023-04-06T08:02:24;101611.03;;;11.16;54.65
69751;BME280;57335;52.288;6.056;2023-04-06T08:04:51;101614.38;;;11.03;54.83
69751;BME280;57335;52.288;6.056;2023-04-06T08:07:17;101610.56;;;10.84;54.32
69751;BME280;57335;52.288;6.056;2023-04-06T08:09:44;101587.31;;;10.53;56.87
69751;BME280;57335;52.288;6.056;2023-04-06T08:12:10;101613.13;;;10.34;56.15
69751;BME280;57335;52.288;6.056;2023-04-06T08:14:37;101611.31;;;10.35;56.55
69751;BME280;57335;52.288;6.056;2023-04-06T08:17:03;101612.38;;;10.26;57.51
69751;BME280;57335;52.288;6.056;2023-04-06T08:19:32;101605.38;;;10.11;56.97
69751;BME280;57335;52.288;6.056;2023-04-06T08:21:58;101613.84;;;10.13;57.91
69751;BME280;57335;52.288;6.056;2023-04-06T08:24:25;101609.50;;;10.21;58.75
69751;BME280;57335;52.288;6.056;2023-04-06T08:26:52;101590.53;;;10.33;57.79
69751;BME280;57335;52.288;6.056;2023-04-06T08:29:19;101599.97;;;10.71;56.78
69751;BME280;57335;52.288;6.056;2023-04-06T08:31:45;101605.69;;;11.03;55.46
69751;BME280;57335;52.288;6.056;2023-04-06T08:34:12;101604.03;;;11.23;55.72
69751;BME280;57335;52.288;6.056;2023-04-06T08:36:43;101597.53;;;11.19;54.27
69751;BME280;57335;52.288;6.056;2023-04-06T08:39:12;101602.53;;;11.14;54.96
69751;BME280;57335;52.288;6.056;2023-04-06T08:41:41;101591.97;;;11.01;55.53
69751;BME280;57335;52.288;6.056;2023-04-06T08:44:08;101597.75;;;10.96;57.71
69751;BME280;57335;52.288;6.056;2023-04-06T08:46:35;101598.19;;;10.78;56.17
69751;BME280;57335;52.288;6.056;2023-04-06T08:49:02;101603.94;;;10.88;57.83
69751;BME280;57335;52.288;6.056;2023-04-06T08:51:29;101591.59;;;10.82;57.26
69751;BME280;57335;52.288;6.056;2023-04-06T08:53:57;101600.06;;;10.84;56.49
69751;BME280;57335;52.288;6.056;2023-04-06T08:56:25;101583.81;;;10.67;56.88
69751;BME280;57335;52.288;6.056;2023-04-06T08:58:53;101586.72;;;10.57;57.67
69751;BME280;57335;52.288;6.056;2023-04-06T09:01:23;101595.22;;;10.60;55.63
69751;BME280;57335;52.288;6.056;2023-04-06T09:03:55;101578.19;;;10.49;58.49
69751;BME280;57335;52.288;6.056;2023-04-06T09:06:22;101598.09;;;10.65;58.38
69751;BME280;57335;52.288;6.056;2023-04-06T09:08:49;101574.31;;;10.45;55.21
69751;BME280;57335;52.288;6.056;2023-04-06T09:11:19;101590.78;;;10.60;57.44
69751;BME280;57335;52.288;6.056;2023-04-06T09:13:55;101597.09;;;10.66;58.34
69751;BME280;57335;52.288;6.056;2023-04-06T09:16:23;101597.22;;;10.79;57.94
69751;BME280;57335;52.288;6.056;2023-04-06T09:18:50;101594.91;;;10.91;58.53
69751;BME280;57335;52.288;6.056;2023-04-06T09:21:17;101579.97;;;10.91;56.39
69751;BME280;57335;52.288;6.056;2023-04-06T09:23:44;101584.31;;;11.06;56.75
69751;BME280;57335;52.288;6.056;2023-04-06T09:26:15;101597.34;;;11.21;55.93
69751;BME280;57335;52.288;6.056;2023-04-06T09:28:58;101584.88;;;11.29;56.23
69751;BME280;57335;52.288;6.056;2023-04-06T09:31:29;101590.75;;;11.31;53.88
69751;BME280;57335;52.288;6.056;2023-04-06T09:33:57;101589.13;;;11.30;55.34
69751;BME280;57335;52.288;6.056;2023-04-06T09:36:34;101578.38;;;11.18;54.83
69751;BME280;57335;52.288;6.056;2023-04-06T09:39:02;101580.78;;;11.20;55.65
69751;BME280;57335;52.288;6.056;2023-04-06T09:41:32;101572.88;;;11.13;54.66
69751;BME280;57335;52.288;6.056;2023-04-06T09:44:04;101563.09;;;11.29;58.06
69751;BME280;57335;52.288;6.056;2023-04-06T09:46:33;101564.59;;;11.45;57.99
69751;BME280;57335;52.288;6.056;2023-04-06T09:49:17;101581.09;;;11.73;55.69
69751;BME280;57335;52.288;6.056;2023-04-06T09:51:46;101554.88;;;11.87;55.10
69751;BME280;57335;52.288;6.056;2023-04-06T09:54:18;101568.53;;;12.17;53.59
69751;BME280;57335;52.288;6.056;2023-04-06T09:56:51;101567.97;;;12.42;55.46
69751;BME280;57335;52.288;6.056;2023-04-06T09:59:28;101575.47;;;12.65;54.61
69751;BME280;57335;52.288;6.056;2023-04-06T10:01:59;101562.16;;;12.73;51.79
69751;BME280;57335;52.288;6.056;2023-04-06T10:04:40;101564.56;;;13.01;53.26
69751;BME280;57335;52.288;6.056;2023-04-06T10:07:10;101558.47;;;13.14;49.84
69751;BME280;57335;52.288;6.056;2023-04-06T10:09:37;101553.19;;;13.21;50.48
69751;BME280;57335;52.288;6.056;2023-04-06T10:12:04;101556.84;;;13.20;52.62
69751;BME280;57335;52.288;6.056;2023-04-06T10:14:33;101548.72;;;13.28;50.45
69751;BME280;57335;52.288;6.056;2023-04-06T10:17:00;101558.06;;;13.17;50.48
69751;BME280;57335;52.288;6.056;2023-04-06T10:19:34;101551.19;;;13.09;49.89
69751;BME280;57335;52.288;6.056;2023-04-06T10:22:03;101554.44;;;13.11;51.90
69751;BME280;57335;52.288;6.056;2023-04-06T10:24:31;101546.53;;;12.98;52.12
69751;BME280;57335;52.288;6.056;2023-04-06T10:27:00;101559.28;;;13.08;50.01
69751;BME280;57335;52.288;6.056;2023-04-06T10:29:27;101551.00;;;12.91;49.17
69751;BME280;57335;52.288;6.056;2023-04-06T10:31:54;101544.94;;;12.84;50.32
69751;BME280;57335;52.288;6.056;2023-04-06T10:34:21;101556.47;;;12.89;50.36
69751;BME280;57335;52.288;6.056;2023-04-06T10:36:47;101553.44;;;12.72;49.91
69751;BME280;57335;52.288;6.056;2023-04-06T10:39:14;101563.97;;;12.66;51.50
69751;BME280;57335;52.288;6.056;2023-04-06T10:41:44;101548.59;;;12.49;51.83
69751;BME280;57335;52.288;6.056;2023-04-06T10:44:19;101555.63;;;12.42;53.16
69751;BME280;57335;52.288;6.056;2023-04-06T10:46:54;101529.72;;;12.12;51.88
69751;BME280;57335;52.288;6.056;2023-04-06T10:49:28;101566.34;;;12.34;51.68
69751;BME280;57335;52.288;6.056;2023-04-06T10:51:56;101561.28;;;12.26;54.01
69751;BME280;57335;52.288;6.056;2023-04-06T10:54:24;101549.97;;;12.25;53.40
69751;BME280;57335;52.288;6.056;2023-04-06T10:56:51;101567.34;;;12.26;54.67
69751;BME280;57335;52.288;6.056;2023-04-06T10:59:21;101551.16;;;12.23;54.35
69751;BME280;57335;52.288;6.056;2023-04-06T11:01:48;101557.81;;;12.18;53.17
69751;BME280;57335;52.288;6.056;2023-04-06T11:04:20;101555.19;;;12.18;54.45
69751;BME280;57335;52.288;6.056;2023-04-06T11:06:48;101547.50;;;12.10;56.17
69751;BME280;57335;52.288;6.056;2023-04-06T11:09:29;101545.91;;;12.16;54.51
69751;BME280;57335;52.288;6.056;2023-04-06T11:11:56;101556.41;;;12.23;54.20
69751;BME280;57335;52.288;6.056;2023-04-06T11:14:23;101539.41;;;12.18;56.51
69751;BME280;57335;52.288;6.056;2023-04-06T11:16:50;101563.53;;;12.35;52.97
69751;BME280;57335;52.288;6.056;2023-04-06T11:19:17;101556.41;;;12.23;53.21
69751;BME280;57335;52.288;6.056;2023-04-06T11:21:47;101566.53;;;12.26;52.39
69751;BME280;57335;52.288;6.056;2023-04-06T11:24:17;101561.66;;;12.16;54.75
69751;BME280;57335;52.288;6.056;2023-04-06T11:26:48;101563.25;;;12.10;52.58
69751;BME280;57335;52.288;6.056;2023-04-06T11:29:26;101552.91;;;11.89;54.17
69751;BME280;57335;52.288;6.056;2023-04-06T11:32:05;101542.41;;;12.02;55.90
69751;BME280;57335;52.288;6.056;2023-04-06T11:34:37;101563.84;;;11.99;57.07
69751;BME280;57335;52.288;6.056;2023-04-06T11:37:07;101557.00;;;12.11;58.24
69751;BME280;57335;52.288;6.056;2023-04-06T11:39:39;101559.25;;;12.21;59.49
69751;BME280;57335;52.288;6.056;2023-04-06T11:42:06;101552.78;;;12.30;58.61
69751;BME280;57335;52.288;6.056;2023-04-06T11:47:02;101549.13;;;12.18;55.00
69751;BME280;57335;52.288;6.056;2023-04-06T11:49:29;101556.41;;;12.09;57.87
69751;BME280;57335;52.288;6.056;2023-04-06T11:51:57;101546.59;;;11.83;57.05
69751;BME280;57335;52.288;6.056;2023-04-06T11:54:36;101553.25;;;11.79;57.23
69751;BME280;57335;52.288;6.056;2023-04-06T11:57:04;101537.59;;;11.64;58.45
69751;BME280;57335;52.288;6.056;2023-04-06T11:59:31;101547.56;;;11.82;62.03
69751;BME280;57335;52.288;6.056;2023-04-06T12:01:58;101545.56;;;11.84;61.18
69751;BME280;57335;52.288;6.056;2023-04-06T12:04:25;101551.94;;;12.03;61.80
69751;BME280;57335;52.288;6.056;2023-04-06T12:06:51;101560.00;;;12.08;59.35
69751;BME280;57335;52.288;6.056;2023-04-06T12:09:18;101553.91;;;11.94;60.20
69751;BME280;57335;52.288;6.056;2023-04-06T12:11:44;101525.13;;;11.73;60.35
69751;BME280;57335;52.288;6.056;2023-04-06T12:14:11;101561.44;;;11.63;60.34
69751;BME280;57335;52.288;6.056;2023-04-06T12:16:38;101539.31;;;11.37;62.05
69751;BME280;57335;52.288;6.056;2023-04-06T12:19:04;101553.25;;;11.44;61.21
69751;BME280;57335;52.288;6.056;2023-04-06T12:21:31;101541.50;;;11.33;63.87
69751;BME280;57335;52.288;6.056;2023-04-06T12:23:58;101552.78;;;11.27;63.69
69751;BME280;57335;52.288;6.056;2023-04-06T12:26:25;101538.88;;;10.98;62.34
69751;BME280;57335;52.288;6.056;2023-04-06T12:28:52;101540.53;;;11.06;64.55
69751;BME280;57335;52.288;6.056;2023-04-06T12:31:20;101533.81;;;10.97;64.12
69751;BME280;57335;52.288;6.056;2023-04-06T12:33:48;101553.41;;;11.01;65.36
69751;BME280;57335;52.288;6.056;2023-04-06T12:36:16;101535.34;;;10.85;66.29
69751;BME280;57335;52.288;6.056;2023-04-06T12:38:42;101557.00;;;10.93;68.38
69751;BME280;57335;52.288;6.056;2023-04-06T12:41:09;101545.88;;;10.91;67.22
69751;BME280;57335;52.288;6.056;2023-04-06T12:43:35;101532.66;;;10.78;70.17
69751;BME280;57335;52.288;6.056;2023-04-06T12:46:01;101538.78;;;10.85;71.63
69751;BME280;57335;52.288;6.056;2023-04-06T12:48:28;101549.38;;;10.98;71.32
69751;BME280;57335;52.288;6.056;2023-04-06T12:50:57;101543.00;;;10.86;70.84
69751;BME280;57335;52.288;6.056;2023-04-06T12:53:24;101542.84;;;10.66;72.14
69751;BME280;57335;52.288;6.056;2023-04-06T12:55:51;101539.56;;;10.57;75.04
69751;BME280;57335;52.288;6.056;2023-04-06T12:58:17;101543.41;;;10.40;75.21
69751;BME280;57335;52.288;6.056;2023-04-06T13:00:44;101549.13;;;10.29;78.48
69751;BME280;57335;52.288;6.056;2023-04-06T13:03:11;101535.97;;;10.01;78.79
69751;BME280;57335;52.288;6.056;2023-04-06T13:05:43;101529.88;;;10.00;78.53
69751;BME280;57335;52.288;6.056;2023-04-06T13:08:11;101552.09;;;10.04;78.17
69751;BME280;57335;52.288;6.056;2023-04-06T13:10:37;101537.63;;;9.87;79.31
69751;BME280;57335;52.288;6.056;2023-04-06T13:13:04;101550.31;;;9.90;82.80
69751;BME280;57335;52.288;6.056;2023-04-06T13:15:31;101547.28;;;9.86;81.71
69751;BME280;57335;52.288;6.056;2023-04-06T13:17:57;101544.22;;;9.83;80.44
69751;BME280;57335;52.288;6.056;2023-04-06T13:20:24;101544.13;;;9.61;83.22
69751;BME280;57335;52.288;6.056;2023-04-06T13:22:50;101524.50;;;9.50;79.90
69751;BME280;57335;52.288;6.056;2023-04-06T13:25:17;101534.13;;;9.50;82.63
69751;BME280;57335;52.288;6.056;2023-04-06T13:27:43;101540.38;;;9.49;83.45
69751;BME280;57335;52.288;6.056;2023-04-06T13:30:10;101535.84;;;9.43;82.83
69751;BME280;57335;52.288;6.056;2023-04-06T13:32:37;101530.59;;;9.28;81.18
69751;BME280;57335;52.288;6.056;2023-04-06T13:35:04;101542.78;;;9.35;82.92
69751;BME280;57335;52.288;6.056;2023-04-06T13:37:31;101543.25;;;9.24;83.65
69751;BME280;57335;52.288;6.056;2023-04-06T13:39:58;101519.88;;;9.08;85.38
69751;BME280;57335;52.288;6.056;2023-04-06T13:42:24;101516.63;;;9.06;86.77
69751;BME280;57335;52.288;6.056;2023-04-06T13:44:57;101534.69;;;9.30;89.00
69751;BME280;57335;52.288;6.056;2023-04-06T13:50:46;101531.59;;;9.12;86.61
69751;BME280;57335;52.288;6.056;2023-04-06T13:53:13;101535.38;;;9.09;86.22
69751;BME280;57335;52.288;6.056;2023-04-06T13:55:41;101541.88;;;8.98;88.12
69751;BME280;57335;52.288;6.056;2023-04-06T13:58:09;101521.13;;;8.82;88.74
69751;BME280;57335;52.288;6.056;2023-04-06T14:00:36;101523.72;;;8.82;89.27
69751;BME280;57335;52.288;6.056;2023-04-06T14:03:21;101535.09;;;8.89;92.33
69751;BME280;57335;52.288;6.056;2023-04-06T14:05:52;101525.41;;;8.75;93.03
69751;BME280;57335;52.288;6.056;2023-04-06T14:08:19;101524.69;;;8.81;92.58
69751;BME280;57335;52.288;6.056;2023-04-06T14:10:48;101501.03;;;8.59;93.02
69751;BME280;57335;52.288;6.056;2023-04-06T14:13:15;101513.59;;;8.64;93.53
69751;BME280;57335;52.288;6.056;2023-04-06T14:15:42;101510.16;;;8.64;95.11
69751;BME280;57335;52.288;6.056;2023-04-06T14:18:08;101529.13;;;8.57;94.01
69751;BME280;57335;52.288;6.056;2023-04-06T14:20:35;101527.75;;;8.47;93.48
69751;BME280;57335;52.288;6.056;2023-04-06T14:23:02;101525.34;;;8.37;94.96
69751;BME280;57335;52.288;6.056;2023-04-06T14:25:32;101523.22;;;8.41;95.25
69751;BME280;57335;52.288;6.056;2023-04-06T14:28:04;101517.88;;;8.34;96.61
69751;BME280;57335;52.288;6.056;2023-04-06T14:30:33;101520.19;;;8.29;96.89
69751;BME280;57335;52.288;6.056;2023-04-06T14:33:00;101519.06;;;8.23;97.50
69751;BME280;57335;52.288;6.056;2023-04-06T14:35:29;101508.84;;;8.13;99.27
69751;BME280;57335;52.288;6.056;2023-04-06T14:37:56;101488.03;;;8.05;100.00
69751;BME280;57335;52.288;6.056;2023-04-06T14:40:23;101507.25;;;8.12;100.00
69751;BME280;57335;52.288;6.056;2023-04-06T14:42:50;101512.75;;;8.17;100.00
69751;BME280;57335;52.288;6.056;2023-04-06T14:45:17;101508.56;;;8.08;97.39
69751;BME280;57335;52.288;6.056;2023-04-06T14:47:44;101492.03;;;7.93;97.06
69751;BME280;57335;52.288;6.056;2023-04-06T14:50:10;101503.06;;;8.03;99.20
69751;BME280;57335;52.288;6.056;2023-04-06T14:52:37;101485.34;;;7.90;98.88
69751;BME280;57335;52.288;6.056;2023-04-06T14:55:03;101494.34;;;7.88;97.31
69751;BME280;57335;52.288;6.056;2023-04-06T14:57:30;101490.09;;;7.87;99.55
69751;BME280;57335;52.288;6.056;2023-04-06T14:59:56;101497.59;;;7.90;99.97
69751;BME280;57335;52.288;6.056;2023-04-06T15:02:23;101487.00;;;7.83;100.00
69751;BME280;57335;52.288;6.056;2023-04-06T15:04:49;101486.84;;;7.85;100.00
69751;BME280;57335;52.288;6.056;2023-04-06T15:07:19;101471.53;;;7.82;100.00
69751;BME280;57335;52.288;6.056;2023-04-06T15:09:45;101489.28;;;7.86;100.00
69751;BME280;57335;52.288;6.056;2023-04-06T15:12:11;101467.34;;;7.72;100.00
69751;BME280;57335;52.288;6.056;2023-04-06T15:14:38;101471.75;;;7.72;100.00
69751;BME280;57335;52.288;6.056;2023-04-06T15:17:04;101489.47;;;7.85;100.00
69751;BME280;57335;52.288;6.056;2023-04-06T15:19:30;101475.66;;;7.76;100.00
69751;BME280;57335;52.288;6.056;2023-04-06T15:21:57;101476.78;;;7.73;100.00
69751;BME280;57335;52.288;6.056;2023-04-06T15:24:26;101470.16;;;7.63;100.00
69751;BME280;57335;52.288;6.056;2023-04-06T15:26:52;101468.03;;;7.66;100.00
69751;BME280;57335;52.288;6.056;2023-04-06T15:29:18;101465.13;;;7.61;100.00
69751;BME280;57335;52.288;6.056;2023-04-06T15:31:45;101478.47;;;7.66;100.00
69751;BME280;57335;52.288;6.056;2023-04-06T15:34:11;101475.19;;;7.72;100.00
69751;BME280;57335;52.288;6.056;2023-04-06T15:36:38;101468.50;;;7.70;100.00
69751;BME280;57335;52.288;6.056;2023-04-06T15:39:04;101472.22;;;7.75;100.00
69751;BME280;57335;52.288;6.056;2023-04-06T15:41:30;101474.19;;;7.73;100.00
69751;BME280;57335;52.288;6.056;2023-04-06T15:43:57;101456.31;;;7.62;100.00
69751;BME280;57335;52.288;6.056;2023-04-06T15:46:24;101456.59;;;7.67;100.00
69751;BME280;57335;52.288;6.056;2023-04-06T15:48:50;101458.94;;;7.62;100.00
69751;BME280;57335;52.288;6.056;2023-04-06T15:51:17;101460.53;;;7.63;100.00
69751;BME280;57335;52.288;6.056;2023-04-06T15:53:44;101461.53;;;7.62;100.00
69751;BME280;57335;52.288;6.056;2023-04-06T15:56:11;101461.88;;;7.59;100.00
69751;BME280;57335;52.288;6.056;2023-04-06T15:58:38;101444.66;;;7.50;100.00
69751;BME280;57335;52.288;6.056;2023-04-06T16:01:12;101446.91;;;7.53;100.00
69751;BME280;57335;52.288;6.056;2023-04-06T16:03:38;101441.72;;;7.45;100.00
69751;BME280;57335;52.288;6.056;2023-04-06T16:06:05;101440.59;;;7.39;100.00
69751;BME280;57335;52.288;6.056;2023-04-06T16:08:34;101457.38;;;7.45;100.00
69751;BME280;57335;52.288;6.056;2023-04-06T16:11:01;101439.69;;;7.32;100.00
69751;BME280;57335;52.288;6.056;2023-04-06T16:13:28;101428.59;;;7.30;100.00
69751;BME280;57335;52.288;6.056;2023-04-06T16:15:54;101439.31;;;7.35;100.00
69751;BME280;57335;52.288;6.056;2023-04-06T16:18:20;101444.38;;;7.36;100.00
69751;BME280;57335;52.288;6.056;2023-04-06T16:20:48;101433.47;;;7.33;100.00
69751;BME280;57335;52.288;6.056;2023-04-06T16:23:14;101437.72;;;7.34;100.00
69751;BME280;57335;52.288;6.056;2023-04-06T16:25:41;101436.44;;;7.30;100.00
69751;BME280;57335;52.288;6.056;2023-04-06T16:28:07;101425.84;;;7.23;100.00
69751;BME280;57335;52.288;6.056;2023-04-06T16:30:38;101434.16;;;7.27;100.00
69751;BME280;57335;52.288;6.056;2023-04-06T16:33:06;101419.00;;;7.22;100.00
69751;BME280;57335;52.288;6.056;2023-04-06T16:35:33;101426.47;;;7.25;100.00
69751;BME280;57335;52.288;6.056;2023-04-06T16:37:59;101418.03;;;7.23;100.00
69751;BME280;57335;52.288;6.056;2023-04-06T16:40:26;101424.88;;;7.24;100.00
69751;BME280;57335;52.288;6.056;2023-04-06T16:42:52;101429.09;;;7.25;100.00
69751;BME280;57335;52.288;6.056;2023-04-06T16:45:18;101415.56;;;7.22;100.00
69751;BME280;57335;52.288;6.056;2023-04-06T16:47:45;101423.22;;;7.23;100.00
69751;BME280;57335;52.288;6.056;2023-04-06T16:50:11;101403.09;;;7.09;100.00
69751;BME280;57335;52.288;6.056;2023-04-06T16:52:38;101417.72;;;7.18;100.00
69751;BME280;57335;52.288;6.056;2023-04-06T16:55:04;101412.03;;;7.14;100.00
69751;BME280;57335;52.288;6.056;2023-04-06T16:57:31;101406.69;;;7.08;100.00
69751;BME280;57335;52.288;6.056;2023-04-06T16:59:58;101407.00;;;7.13;100.00
69751;BME280;57335;52.288;6.056;2023-04-06T17:02:25;101417.09;;;7.16;100.00
69751;BME280;57335;52.288;6.056;2023-04-06T17:04:52;101402.97;;;7.02;100.00
69751;BME280;57335;52.288;6.056;2023-04-06T17:07:18;101397.91;;;7.01;100.00
69751;BME280;57335;52.288;6.056;2023-04-06T17:09:44;101406.22;;;7.04;100.00
69751;BME280;57335;52.288;6.056;2023-04-06T17:12:11;101406.22;;;7.04;100.00
69751;BME280;57335;52.288;6.056;2023-04-06T17:14:39;101408.66;;;7.06;100.00
69751;BME280;57335;52.288;6.056;2023-04-06T17:17:05;101402.31;;;7.00;100.00
69751;BME280;57335;52.288;6.056;2023-04-06T17:19:52;101393.38;;;6.94;100.00
69751;BME280;57335;52.288;6.056;2023-04-06T17:22:19;101383.28;;;6.91;100.00
69751;BME280;57335;52.288;6.056;2023-04-06T17:24:46;101399.38;;;6.95;100.00
69751;BME280;57335;52.288;6.056;2023-04-06T17:27:13;101380.69;;;6.83;100.00
69751;BME280;57335;52.288;6.056;2023-04-06T17:29:39;101397.47;;;6.89;100.00
69751;BME280;57335;52.288;6.056;2023-04-06T17:32:06;101391.44;;;6.88;100.00
69751;BME280;57335;52.288;6.056;2023-04-06T17:34:32;101401.69;;;6.98;100.00
69751;BME280;57335;52.288;6.056;2023-04-06T17:36:59;101404.75;;;6.93;100.00
69751;BME280;57335;52.288;6.056;2023-04-06T17:39:25;101395.22;;;6.86;100.00
69751;BME280;57335;52.288;6.056;2023-04-06T17:41:51;101403.47;;;6.89;100.00
69751;BME280;57335;52.288;6.056;2023-04-06T17:44:18;101385.63;;;6.78;100.00
69751;BME280;57335;52.288;6.056;2023-04-06T17:46:44;101391.75;;;6.85;100.00
69751;BME280;57335;52.288;6.056;2023-04-06T17:49:11;101387.56;;;6.84;100.00
69751;BME280;57335;52.288;6.056;2023-04-06T17:51:37;101387.03;;;6.89;100.00
69751;BME280;57335;52.288;6.056;2023-04-06T17:54:03;101393.41;;;6.86;100.00
69751;BME280;57335;52.288;6.056;2023-04-06T17:56:30;101386.56;;;6.85;100.00
69751;BME280;57335;52.288;6.056;2023-04-06T17:58:56;101400.56;;;6.92;100.00
69751;BME280;57335;52.288;6.056;2023-04-06T18:01:23;101393.72;;;6.83;100.00
69751;BME280;57335;52.288;6.056;2023-04-06T18:03:50;101395.50;;;6.91;100.00
69751;BME280;57335;52.288;6.056;2023-04-06T18:06:16;101409.31;;;6.99;100.00
69751;BME280;57335;52.288;6.056;2023-04-06T18:08:43;101388.03;;;6.88;100.00
69751;BME280;57335;52.288;6.056;2023-04-06T18:11:19;101397.13;;;6.92;100.00
69751;BME280;57335;52.288;6.056;2023-04-06T18:13:47;101400.72;;;6.91;100.00
69751;BME280;57335;52.288;6.056;2023-04-06T18:16:13;101413.56;;;7.01;100.00
69751;BME280;57335;52.288;6.056;2023-04-06T18:18:40;101412.09;;;6.98;100.00
69751;BME280;57335;52.288;6.056;2023-04-06T18:21:07;101404.59;;;6.95;100.00
69751;BME280;57335;52.288;6.056;2023-04-06T18:23:33;101396.00;;;6.86;100.00
69751;BME280;57335;52.288;6.056;2023-04-06T18:26:00;101417.50;;;6.88;100.00
69751;BME280;57335;52.288;6.056;2023-04-06T18:28:27;101410.63;;;6.95;100.00
69751;BME280;57335;52.288;6.056;2023-04-06T18:30:53;101414.88;;;6.96;100.00
69751;BME280;57335;52.288;6.056;2023-04-06T18:33:20;101409.66;;;6.96;100.00
69751;BME280;57335;52.288;6.056;2023-04-06T18:35:46;101412.78;;;6.92;100.00
69751;BME280;57335;52.288;6.056;2023-04-06T18:38:13;101407.72;;;6.90;100.00
69751;BME280;57335;52.288;6.056;2023-04-06T18:40:41;101409.50;;;6.98;100.00
69751;BME280;57335;52.288;6.056;2023-04-06T18:43:07;101388.50;;;6.83;100.00
69751;BME280;57335;52.288;6.056;2023-04-06T18:45:35;101403.00;;;6.94;100.00
69751;BME280;57335;52.288;6.056;2023-04-06T18:48:02;101402.81;;;6.95;100.00
69751;BME280;57335;52.288;6.056;2023-04-06T18:50:28;101404.97;;;6.92;100.00
69751;BME280;57335;52.288;6.056;2023-04-06T18:52:55;101380.06;;;6.81;100.00
69751;BME280;57335;52.288;6.056;2023-04-06T18:55:21;101404.59;;;6.95;100.00
69751;BME280;57335;52.288;6.056;2023-04-06T18:57:48;101394.34;;;6.93;100.00
69751;BME280;57335;52.288;6.056;2023-04-06T19:00:15;101385.59;;;6.86;100.00
69751;BME280;57335;52.288;6.056;2023-04-06T19:02:42;101393.53;;;6.93;100.00
69751;BME280;57335;52.288;6.056;2023-04-06T19:05:12;101382.19;;;6.86;100.00
69751;BME280;57335;52.288;6.056;2023-04-06T19:07:39;101388.03;;;6.88;100.00
69751;BME280;57335;52.288;6.056;2023-04-06T19:10:06;101387.19;;;6.87;100.00
69751;BME280;57335;52.288;6.056;2023-04-06T19:12:34;101398.91;;;6.91;100.00
69751;BME280;57335;52.288;6.056;2023-04-06T19:15:05;101403.00;;;6.94;100.00
69751;BME280;57335;52.288;6.056;2023-04-06T19:17:32;101401.19;;;6.94;100.00
69751;BME280;57335;52.288;6.056;2023-04-06T19:19:58;101406.06;;;6.97;100.00
69751;BME280;57335;52.288;6.056;2023-04-06T19:22:25;101395.66;;;6.89;100.00
69751;BME280;57335;52.288;6.056;2023-04-06T19:24:51;101411.91;;;6.99;100.00
69751;BME280;57335;52.288;6.056;2023-04-06T19:27:18;101404.44;;;6.96;100.00
69751;BME280;57335;52.288;6.056;2023-04-06T19:29:44;101408.97;;;7.03;100.00
69751;BME280;57335;52.288;6.056;2023-04-06T19:32:11;101406.22;;;7.04;100.00
69751;BME280;57335;52.288;6.056;2023-04-06T19:34:37;101375.81;;;6.88;100.00
69751;BME280;57335;52.288;6.056;2023-04-06T19:37:04;101386.88;;;6.90;100.00
69751;BME280;57335;52.288;6.056;2023-04-06T19:39:31;101397.59;;;6.95;100.00
69751;BME280;57335;52.288;6.056;2023-04-06T19:41:57;101406.22;;;7.04;100.00
69751;BME280;57335;52.288;6.056;2023-04-06T19:44:24;101402.97;;;7.02;100.00
69751;BME280;57335;52.288;6.056;2023-04-06T19:46:50;101385.84;;;6.99;100.00
69751;BME280;57335;52.288;6.056;2023-04-06T19:49:17;101398.88;;;7.08;100.00
69751;BME280;57335;52.288;6.056;2023-04-06T19:51:43;101388.13;;;7.03;100.00
69751;BME280;57335;52.288;6.056;2023-04-06T19:54:10;101405.06;;;7.07;100.00
69751;BME280;57335;52.288;6.056;2023-04-06T19:56:36;101401.97;;;7.03;100.00
69751;BME280;57335;52.288;6.056;2023-04-06T19:59:02;101396.59;;;7.05;100.00
69751;BME280;57335;52.288;6.056;2023-04-06T20:01:29;101401.94;;;7.11;100.00
69751;BME280;57335;52.288;6.056;2023-04-06T20:03:55;101394.63;;;7.07;100.00
69751;BME280;57335;52.288;6.056;2023-04-06T20:06:22;101414.31;;;7.09;100.00
69751;BME280;57335;52.288;6.056;2023-04-06T20:08:48;101401.13;;;7.11;100.00
69751;BME280;57335;52.288;6.056;2023-04-06T20:11:15;101407.00;;;7.13;100.00
69751;BME280;57335;52.288;6.056;2023-04-06T20:13:41;101398.69;;;7.09;100.00
69751;BME280;57335;52.288;6.056;2023-04-06T20:16:08;101401.78;;;7.13;100.00
69751;BME280;57335;52.288;6.056;2023-04-06T20:18:34;101407.63;;;7.15;100.00
69751;BME280;57335;52.288;6.056;2023-04-06T20:21:01;101409.28;;;7.16;100.00
69751;BME280;57335;52.288;6.056;2023-04-06T20:23:27;101401.44;;;7.16;100.00